createdAt,value
2023-03-04T00:02:01.392Z,64.38
2023-03-04T00:04:32.521Z,64.48
2023-03-04T00:07:03.542Z,64.71
2023-03-04T00:09:34.451Z,64.38
2023-03-04T00:12:08.016Z,64.53
2023-03-04T00:14:39.146Z,64.64
2023-03-04T00:17:10.256Z,64.47
2023-03-04T00:19:41.210Z,64.73
2023-03-04T00:22:12.417Z,64.49
2023-03-04T00:24:43.446Z,64.61
2023-03-04T00:27:14.536Z,64.39
2023-03-04T00:29:45.672Z,64.74
2023-03-04T00:32:18.491Z,64.74
2023-03-04T00:34:49.649Z,64.88
2023-03-04T00:37:20.647Z,64.92
2023-03-04T00:39:54.464Z,64.73
2023-03-04T00:42:48.323Z,64.43
2023-03-04T00:45:22.403Z,64.78
2023-03-04T00:47:53.419Z,64.91
2023-03-04T00:50:24.621Z,64.95
2023-03-04T00:52:55.896Z,64.74
2023-03-04T00:55:28.183Z,64.53
2023-03-04T00:57:59.128Z,64.87
2023-03-04T01:00:30.147Z,64.91
2023-03-04T01:03:01.378Z,64.72
2023-03-04T01:05:34.412Z,64.55
2023-03-04T01:08:05.612Z,64.77
2023-03-04T01:10:36.875Z,64.66
2023-03-04T01:13:07.864Z,64.68
2023-03-04T01:15:38.943Z,64.79
2023-03-04T01:18:10.046Z,64.63
2023-03-04T01:20:41.197Z,64.43
2023-03-04T01:23:12.191Z,64.62
2023-03-04T01:25:43.255Z,64.67
2023-03-04T01:28:14.218Z,64.32
2023-03-04T01:30:45.431Z,64.50
2023-03-04T01:33:16.672Z,64.63
2023-03-04T01:35:47.679Z,64.57
2023-03-04T01:38:18.628Z,64.62
2023-03-04T01:40:50.201Z,64.51
2023-03-04T01:43:25.697Z,64.52
2023-03-04T01:45:59.033Z,64.61
2023-03-04T01:48:34.116Z,64.91
2023-03-04T01:51:06.021Z,64.96
2023-03-04T01:53:36.995Z,64.84
2023-03-04T01:56:16.946Z,64.90
2023-03-04T01:59:07.552Z,64.80
2023-03-04T02:01:39.770Z,64.94
2023-03-04T02:04:11.655Z,65.22
2023-03-04T02:06:43.539Z,65.07
2023-03-04T02:09:14.631Z,65.00
2023-03-04T02:11:47.175Z,65.06
2023-03-04T02:14:19.701Z,65.33
2023-03-04T02:16:51.764Z,65.23
2023-03-04T02:19:38.063Z,65.44
2023-03-04T02:22:09.516Z,65.24
2023-03-04T02:24:44.534Z,65.49
2023-03-04T02:27:14.280Z,65.35
2023-03-04T02:29:45.435Z,65.28
2023-03-04T02:32:17.615Z,65.23
2023-03-04T02:34:51.988Z,65.12
2023-03-04T02:37:25.107Z,65.16
2023-03-04T02:39:57.460Z,65.25
2023-03-04T02:42:28.508Z,65.56
2023-03-04T02:45:03.524Z,65.52
2023-03-04T02:47:34.591Z,65.61
2023-03-04T02:50:06.200Z,65.51
2023-03-04T02:52:37.333Z,65.60
2023-03-04T02:55:10.552Z,65.75
2023-03-04T02:57:41.647Z,65.73
2023-03-04T03:00:14.887Z,65.73
2023-03-04T03:02:46.159Z,65.72
2023-03-04T03:05:18.028Z,65.46
2023-03-04T03:07:49.044Z,65.85
2023-03-04T03:10:20.366Z,65.79
2023-03-04T03:12:52.113Z,65.54
2023-03-04T03:15:23.975Z,65.60
2023-03-04T03:17:55.204Z,65.80
2023-03-04T03:20:26.183Z,65.82
2023-03-04T03:22:57.130Z,65.69
2023-03-04T03:25:28.321Z,65.46
2023-03-04T03:27:59.500Z,65.67
2023-03-04T03:30:31.125Z,65.51
2023-03-04T03:33:02.176Z,65.71
2023-03-04T03:35:33.230Z,65.39
2023-03-04T03:38:04.282Z,65.67
2023-03-04T03:40:35.263Z,65.44
2023-03-04T03:43:06.272Z,65.65
2023-03-04T03:45:37.249Z,65.60
2023-03-04T03:48:08.653Z,65.70
2023-03-04T03:50:39.720Z,65.50
2023-03-04T03:53:10.630Z,65.49
2023-03-04T03:55:41.936Z,65.43
2023-03-04T03:58:13.041Z,65.43
2023-03-04T04:00:46.291Z,65.50
2023-03-04T04:03:19.016Z,65.35
2023-03-04T04:05:50.124Z,65.40
2023-03-04T04:08:21.321Z,65.37
2023-03-04T04:10:52.205Z,65.38
2023-03-04T04:13:23.236Z,65.34
2023-03-04T04:15:56.793Z,65.47
2023-03-04T04:18:27.904Z,65.19
2023-03-04T04:20:58.834Z,65.12
2023-03-04T04:23:29.880Z,65.20
2023-03-04T04:26:01.119Z,65.25
2023-03-04T04:28:32.073Z,64.89
2023-03-04T04:31:03.059Z,65.22
2023-03-04T04:33:33.979Z,65.17
2023-03-04T04:36:05.828Z,65.05
2023-03-04T04:38:37.905Z,65.47
2023-03-04T04:41:16.134Z,65.04
2023-03-04T04:43:47.128Z,64.99
2023-03-04T04:46:19.306Z,65.02
2023-03-04T04:48:50.415Z,64.90
2023-03-04T04:51:21.418Z,64.70
2023-03-04T04:53:52.354Z,64.83
2023-03-04T04:56:26.501Z,64.84
2023-03-04T04:58:59.906Z,64.63
2023-03-04T05:01:30.914Z,64.83
2023-03-04T05:04:02.065Z,64.45
2023-03-04T05:06:33.087Z,64.62
2023-03-04T05:09:04.520Z,64.54
2023-03-04T05:11:35.890Z,64.50
2023-03-04T05:14:06.922Z,64.52
2023-03-04T05:16:38.020Z,64.23
2023-03-04T05:19:09.626Z,64.26
2023-03-04T05:21:40.760Z,64.20
2023-03-04T05:24:12.089Z,64.23
2023-03-04T05:26:43.543Z,63.95
2023-03-04T05:29:14.672Z,64.03
2023-03-04T05:31:45.578Z,64.06
2023-03-04T05:34:16.581Z,64.03
2023-03-04T05:36:48.444Z,63.93
2023-03-04T05:39:19.642Z,64.08
2023-03-04T05:41:50.637Z,64.31
2023-03-04T05:44:21.999Z,64.29
2023-03-04T05:46:53.348Z,64.07
2023-03-04T05:49:24.435Z,64.21
2023-03-04T05:51:55.345Z,64.08
2023-03-04T05:54:26.277Z,64.19
2023-03-04T05:56:57.387Z,64.26
2023-03-04T05:59:28.589Z,64.30
2023-03-04T06:01:59.580Z,64.12
2023-03-04T06:04:30.695Z,64.08
2023-03-04T06:07:01.743Z,63.93
2023-03-04T06:09:32.779Z,64.07
2023-03-04T06:12:03.823Z,64.01
2023-03-04T06:14:35.182Z,63.99
2023-03-04T06:17:06.225Z,64.08
2023-03-04T06:19:38.040Z,64.12
2023-03-04T06:22:09.227Z,63.78
2023-03-04T06:24:40.732Z,64.15
2023-03-04T06:27:11.905Z,63.94
2023-03-04T06:29:43.035Z,64.22
2023-03-04T06:32:14.274Z,64.16
2023-03-04T06:34:45.527Z,64.17
2023-03-04T06:37:16.490Z,64.41
2023-03-04T06:39:47.560Z,63.98
2023-03-04T06:42:18.486Z,64.21
2023-03-04T06:44:51.138Z,64.10
2023-03-04T06:47:22.148Z,64.20
2023-03-04T06:49:53.682Z,64.47
2023-03-04T06:52:25.332Z,64.48
2023-03-04T06:54:56.657Z,64.24
2023-03-04T06:57:27.849Z,64.21
2023-03-04T06:59:58.882Z,64.36
2023-03-04T07:02:30.498Z,64.88
2023-03-04T07:05:01.440Z,64.72
2023-03-04T07:07:32.413Z,64.40
2023-03-04T07:10:03.438Z,64.75
2023-03-04T07:12:34.884Z,64.75
2023-03-04T07:15:06.867Z,64.66
2023-03-04T07:17:37.864Z,64.97
2023-03-04T07:20:10.433Z,64.98
2023-03-04T07:22:41.397Z,64.66
2023-03-04T07:25:12.798Z,64.31
2023-03-04T07:27:43.749Z,64.56
2023-03-04T07:30:16.588Z,64.80
2023-03-04T07:32:47.738Z,64.74
2023-03-04T07:35:19.240Z,64.53
2023-03-04T07:37:50.740Z,64.62
2023-03-04T07:40:22.248Z,64.77
2023-03-04T07:42:55.304Z,64.40
2023-03-04T07:45:27.044Z,64.53
2023-03-04T07:47:58.598Z,64.47
2023-03-04T07:50:29.515Z,64.49
2023-03-04T07:53:00.305Z,64.56
2023-03-04T07:55:34.307Z,64.81
2023-03-04T07:58:05.678Z,64.62
2023-03-04T08:00:36.846Z,64.37
2023-03-04T08:03:07.864Z,64.40
2023-03-04T08:05:41.677Z,64.10
2023-03-04T08:08:12.965Z,64.52
2023-03-04T08:10:44.001Z,64.31
2023-03-04T08:13:17.753Z,64.42
2023-03-04T08:15:48.774Z,64.13
2023-03-04T08:18:21.618Z,64.28
2023-03-04T08:20:52.501Z,64.05
2023-03-04T08:23:23.932Z,64.39
2023-03-04T08:25:55.182Z,64.21
2023-03-04T08:28:26.016Z,64.38
2023-03-04T08:30:57.270Z,64.78
2023-03-04T08:33:32.114Z,64.37
2023-03-04T08:36:03.586Z,64.56
2023-03-04T08:38:55.815Z,64.18
2023-03-04T08:41:27.627Z,64.25
2023-03-04T08:43:58.862Z,64.06
2023-03-04T08:46:31.480Z,64.26
2023-03-04T08:49:03.010Z,64.04
2023-03-04T08:51:35.905Z,64.04
2023-03-04T08:54:08.406Z,64.22
2023-03-04T08:56:39.468Z,64.16
2023-03-04T08:59:13.684Z,64.35
2023-03-04T09:01:44.829Z,63.79
2023-03-04T09:04:15.946Z,64.01
2023-03-04T09:06:47.083Z,64.06
2023-03-04T09:09:19.247Z,64.27
2023-03-04T09:11:57.849Z,64.44
2023-03-04T09:14:28.949Z,64.22
2023-03-04T09:17:00.513Z,64.13
2023-03-04T09:19:32.237Z,64.01
2023-03-04T09:22:03.851Z,63.91
2023-03-04T09:24:34.673Z,63.93
2023-03-04T09:27:10.384Z,63.90
2023-03-04T09:29:42.568Z,63.81
2023-03-04T09:32:17.049Z,63.96
2023-03-04T09:34:48.496Z,63.99
2023-03-04T09:37:19.583Z,63.63
2023-03-04T09:39:51.547Z,63.70
2023-03-04T09:42:29.650Z,63.64
2023-03-04T09:45:01.580Z,63.81
2023-03-04T09:47:35.067Z,63.92
2023-03-04T09:50:09.619Z,63.72
2023-03-04T09:52:53.466Z,63.81
2023-03-04T09:55:29.605Z,63.82
2023-03-04T09:58:06.133Z,63.64
2023-03-04T10:00:40.899Z,63.66
2023-03-04T10:03:54.077Z,63.83
2023-03-04T10:06:54.740Z,63.58
2023-03-04T10:09:43.750Z,63.66
2023-03-04T10:12:19.481Z,63.87
2023-03-04T10:15:01.679Z,63.54
2023-03-04T10:17:38.323Z,63.51
2023-03-04T10:20:20.261Z,63.33
2023-03-04T10:23:12.411Z,63.52
2023-03-04T10:25:46.858Z,63.80
2023-03-04T10:28:32.405Z,63.69
2023-03-04T10:31:11.463Z,63.47
2023-03-04T10:33:43.531Z,63.58
2023-03-04T10:36:35.435Z,63.49
2023-03-04T10:39:12.343Z,63.73
2023-03-04T10:41:54.914Z,63.92
2023-03-04T10:44:26.909Z,63.91
2023-03-04T10:47:00.811Z,63.67
2023-03-04T10:49:34.379Z,63.82
2023-03-04T10:52:16.909Z,63.71
2023-03-04T10:54:55.523Z,64.04
2023-03-04T10:57:35.258Z,64.08
2023-03-04T11:00:32.091Z,64.23
2023-03-04T11:03:40.733Z,64.38
2023-03-04T11:06:20.162Z,64.61
2023-03-04T11:09:08.113Z,64.40
2023-03-04T11:11:54.760Z,64.32
2023-03-04T11:14:35.184Z,64.50
2023-03-04T11:17:22.415Z,64.67
2023-03-04T11:19:59.222Z,64.90
2023-03-04T11:22:32.671Z,64.80
2023-03-04T11:25:08.137Z,64.92
2023-03-04T11:27:46.096Z,65.09
2023-03-04T11:30:35.661Z,65.07
2023-03-04T11:33:15.450Z,65.25
2023-03-04T11:35:58.495Z,65.29
2023-03-04T11:38:37.813Z,65.55
2023-03-04T11:41:16.480Z,65.42
2023-03-04T11:43:49.733Z,65.68
2023-03-04T11:46:55.487Z,65.62
2023-03-04T11:50:05.458Z,65.65
2023-03-04T11:52:56.460Z,65.51
2023-03-04T11:55:45.259Z,65.59
2023-03-04T11:58:49.224Z,65.92
2023-03-04T12:01:50.603Z,65.76
2023-03-04T12:04:42.802Z,65.55
2023-03-04T12:07:23.610Z,65.67
2023-03-04T12:10:06.098Z,65.71
2023-03-04T12:12:53.142Z,65.71
2023-03-04T12:15:35.066Z,66.29
2023-03-04T12:18:29.869Z,66.00
2023-03-04T12:21:45.823Z,65.97
2023-03-04T12:24:35.994Z,65.76
2023-03-04T12:27:16.921Z,65.98
2023-03-04T12:29:57.364Z,65.97
2023-03-04T12:32:37.738Z,66.00
2023-03-04T12:35:24.600Z,66.02
2023-03-04T12:38:06.313Z,66.05
2023-03-04T12:40:44.667Z,66.31
2023-03-04T12:43:34.392Z,66.47
2023-03-04T12:46:22.652Z,66.41
2023-03-04T12:49:20.927Z,66.28
2023-03-04T12:52:01.604Z,66.02
2023-03-04T12:54:36.071Z,66.07
2023-03-04T12:57:12.809Z,65.99
2023-03-04T12:59:51.023Z,66.03
2023-03-04T13:02:35.806Z,65.61
2023-03-04T13:05:37.041Z,65.31
2023-03-04T13:08:23.148Z,65.13
2023-03-04T13:10:58.563Z,65.20
2023-03-04T13:14:01.577Z,65.18
2023-03-04T13:16:36.799Z,65.25
2023-03-04T13:19:45.049Z,65.42
2023-03-04T13:22:46.538Z,65.29
2023-03-04T13:25:45.309Z,65.01
2023-03-04T13:28:28.410Z,64.90
2023-03-04T13:31:20.579Z,64.44
2023-03-04T13:33:55.570Z,64.04
2023-03-04T13:36:47.824Z,63.66
2023-03-04T13:39:36.175Z,62.61
2023-03-04T13:42:41.460Z,62.11
2023-03-04T13:45:39.208Z,61.88
2023-03-04T13:48:27.843Z,61.60
2023-03-04T13:51:00.216Z,61.83
2023-03-04T13:53:41.578Z,62.16
2023-03-04T13:56:37.467Z,62.41
2023-03-04T13:59:31.498Z,62.51
2023-03-04T14:02:05.371Z,63.03
2023-03-04T14:04:39.292Z,63.06
2023-03-04T14:07:25.456Z,63.27
2023-03-04T14:10:08.019Z,63.74
2023-03-04T14:12:45.912Z,63.64
2023-03-04T14:15:25.611Z,63.67
2023-03-04T14:17:59.534Z,63.42
2023-03-04T14:20:33.184Z,63.25
2023-03-04T14:23:06.564Z,63.40
2023-03-04T14:25:38.890Z,63.13
2023-03-04T14:28:16.835Z,63.36
2023-03-04T14:30:54.935Z,63.10
2023-03-04T14:33:31.354Z,62.81
2023-03-04T14:36:04.061Z,63.03
2023-03-04T14:38:38.205Z,62.60
2023-03-04T14:41:11.822Z,62.71
2023-03-04T14:43:59.756Z,62.82
2023-03-04T14:46:51.271Z,62.57
2023-03-04T14:49:28.766Z,62.57
2023-03-04T14:52:01.389Z,62.18
2023-03-04T14:54:36.306Z,61.57
2023-03-04T14:57:26.714Z,61.42
2023-03-04T14:59:57.731Z,60.89
2023-03-04T15:02:33.327Z,60.48
2023-03-04T15:05:16.925Z,60.21
2023-03-04T15:07:54.880Z,60.01
2023-03-04T15:10:45.756Z,59.45
2023-03-04T15:13:19.363Z,59.66
2023-03-04T15:15:50.376Z,59.04
2023-03-04T15:18:26.592Z,58.56
2023-03-04T15:21:03.453Z,58.31
2023-03-04T15:23:35.499Z,57.97
2023-03-04T15:26:10.890Z,58.00
2023-03-04T15:28:41.828Z,57.43
2023-03-04T15:31:21.028Z,57.06
2023-03-04T15:33:52.613Z,56.72
2023-03-04T15:36:24.981Z,56.29
2023-03-04T15:38:56.226Z,55.88
2023-03-04T15:41:28.399Z,54.66
2023-03-04T15:43:59.302Z,53.89
2023-03-04T15:46:30.510Z,53.64
2023-03-04T15:49:03.574Z,54.24
2023-03-04T15:51:34.730Z,53.73
2023-03-04T15:54:05.945Z,53.80
2023-03-04T15:56:37.687Z,53.74
2023-03-04T15:59:13.460Z,53.46
2023-03-04T16:01:45.013Z,53.02
2023-03-04T16:04:18.004Z,53.11
2023-03-04T16:06:50.374Z,52.89
2023-03-04T16:09:22.991Z,52.66
2023-03-04T16:11:56.515Z,52.68
2023-03-04T16:14:27.453Z,52.30
2023-03-04T16:16:59.473Z,52.39
2023-03-04T16:19:31.690Z,52.11
2023-03-04T16:22:02.955Z,51.99
2023-03-04T16:24:36.120Z,51.41
2023-03-04T16:27:11.255Z,50.71
2023-03-04T16:29:43.135Z,50.60
2023-03-04T16:32:16.517Z,50.25
2023-03-04T16:34:47.896Z,49.98
2023-03-04T16:37:21.521Z,50.03
2023-03-04T16:39:54.864Z,49.91
2023-03-04T16:42:27.284Z,49.52
2023-03-04T16:44:58.320Z,49.35
2023-03-04T16:47:29.709Z,49.56
2023-03-04T16:50:00.591Z,49.34
2023-03-04T16:52:33.952Z,49.53
2023-03-04T16:55:05.037Z,49.07
2023-03-04T16:57:36.026Z,49.11
2023-03-04T17:00:12.867Z,49.23
2023-03-04T17:02:44.316Z,48.86
2023-03-04T17:05:19.594Z,48.74
2023-03-04T17:07:51.690Z,48.66
2023-03-04T17:10:23.641Z,48.40
2023-03-04T17:12:58.889Z,48.45
2023-03-04T17:15:31.476Z,48.43
2023-03-04T17:18:04.021Z,48.17
2023-03-04T17:20:36.134Z,48.03
2023-03-04T17:23:07.704Z,48.01
2023-03-04T17:25:38.635Z,47.88
2023-03-04T17:28:09.618Z,47.75
2023-03-04T17:30:40.666Z,47.83
2023-03-04T17:33:11.575Z,47.88
2023-03-04T17:35:42.606Z,47.81
2023-03-04T17:38:13.602Z,47.57
2023-03-04T17:40:44.707Z,47.42
2023-03-04T17:43:15.683Z,47.08
2023-03-04T17:45:47.348Z,47.18
2023-03-04T17:48:18.249Z,47.36
2023-03-04T17:50:54.054Z,47.02
2023-03-04T17:53:25.047Z,46.69
2023-03-04T17:56:00.330Z,46.73
2023-03-04T17:58:32.488Z,46.74
2023-03-04T18:01:06.079Z,46.86
2023-03-04T18:03:38.176Z,46.90
2023-03-04T18:06:10.631Z,46.95
2023-03-04T18:08:41.606Z,47.01
2023-03-04T18:11:12.926Z,46.80
2023-03-04T18:13:44.807Z,46.66
2023-03-04T18:16:23.675Z,46.45
2023-03-04T18:18:57.824Z,46.49
2023-03-04T18:21:35.658Z,46.31
2023-03-04T18:24:07.228Z,46.04
2023-03-04T18:26:40.881Z,46.09
2023-03-04T18:29:11.930Z,46.24
2023-03-04T18:31:43.414Z,46.37
2023-03-04T18:34:14.474Z,46.15
2023-03-04T18:36:47.670Z,46.06
2023-03-04T18:39:18.754Z,46.06
2023-03-04T18:41:49.848Z,45.76
2023-03-04T18:44:20.768Z,45.68
2023-03-04T18:46:54.672Z,45.51
2023-03-04T18:49:25.974Z,45.54
2023-03-04T18:51:57.395Z,45.52
2023-03-04T18:54:28.386Z,45.57
2023-03-04T18:57:02.088Z,45.61
2023-03-04T18:59:37.158Z,45.62
2023-03-04T19:02:14.710Z,45.62
2023-03-04T19:04:45.865Z,45.70
2023-03-04T19:07:16.728Z,45.64
2023-03-04T19:09:47.770Z,45.62
2023-03-04T19:12:18.696Z,45.62
2023-03-04T19:14:49.745Z,45.57
2023-03-04T19:17:20.668Z,45.67
2023-03-04T19:19:51.595Z,45.69
2023-03-04T19:22:22.863Z,45.70
2023-03-04T19:24:53.999Z,45.44
2023-03-04T19:27:24.909Z,45.61
2023-03-04T19:29:55.908Z,45.87
2023-03-04T19:32:27.404Z,45.73
2023-03-04T19:34:58.543Z,45.56
2023-03-04T19:37:29.478Z,45.70
2023-03-04T19:40:01.581Z,45.64
2023-03-04T19:42:34.263Z,45.78
2023-03-04T19:45:09.496Z,45.85
2023-03-04T19:47:41.343Z,45.82
2023-03-04T19:50:16.305Z,45.91
2023-03-04T19:52:53.901Z,45.79
2023-03-04T19:55:25.534Z,45.81
2023-03-04T19:57:56.462Z,45.80
2023-03-04T20:00:27.479Z,45.90
2023-03-04T20:03:01.876Z,45.93
2023-03-04T20:05:41.915Z,45.94
2023-03-04T20:08:13.010Z,45.94
2023-03-04T20:10:49.255Z,46.00
2023-03-04T20:13:21.819Z,45.94
2023-03-04T20:15:52.644Z,45.95
2023-03-04T20:18:23.488Z,45.88
2023-03-04T20:20:56.917Z,45.99
2023-03-04T20:23:29.316Z,46.08
2023-03-04T20:40:29.883Z,45.57
2023-03-04T20:43:02.539Z,45.30
2023-03-04T20:45:36.287Z,45.63
2023-03-04T20:48:09.729Z,45.56
2023-03-04T20:50:41.646Z,45.82
2023-03-04T20:53:13.576Z,45.96
2023-03-04T20:55:44.566Z,45.99
2023-03-04T20:58:15.769Z,46.22
2023-03-04T21:00:53.057Z,46.41
2023-03-04T21:03:24.257Z,46.31
2023-03-04T21:06:03.536Z,46.49
2023-03-04T21:08:35.784Z,46.45
2023-03-04T21:11:14.254Z,46.57
2023-03-04T21:14:13.286Z,46.63
2023-03-04T21:16:46.705Z,46.94
2023-03-04T21:19:19.777Z,46.83
2023-03-04T21:21:52.880Z,46.63
2023-03-04T21:24:25.716Z,46.94
2023-03-04T21:27:09.590Z,46.94
2023-03-04T21:29:42.180Z,47.03
2023-03-04T21:32:25.589Z,46.90
2023-03-04T21:34:57.195Z,46.96
2023-03-04T21:37:28.376Z,47.05
2023-03-04T21:40:01.438Z,47.25
2023-03-04T21:42:32.599Z,47.37
2023-03-04T21:45:04.119Z,47.29
2023-03-04T21:47:49.288Z,47.27
2023-03-04T21:50:27.947Z,47.23
2023-03-04T21:56:29.303Z,47.61
2023-03-04T21:59:06.536Z,47.41
2023-03-04T22:01:51.568Z,47.49
2023-03-04T22:04:22.459Z,47.36
2023-03-04T22:06:53.612Z,47.55
2023-03-04T22:09:31.190Z,47.78
2023-03-04T22:12:02.298Z,47.75
2023-03-04T22:14:33.217Z,47.93
2023-03-04T22:17:12.037Z,47.89
2023-03-04T22:19:46.964Z,47.88
2023-03-04T22:22:19.163Z,47.93
2023-03-04T22:25:01.441Z,48.12
2023-03-04T22:27:35.284Z,48.03
2023-03-04T22:30:07.438Z,48.34
2023-03-04T22:32:41.234Z,48.19
2023-03-04T22:35:13.578Z,48.28
2023-03-04T22:37:47.470Z,48.36
2023-03-04T22:40:18.733Z,48.40
2023-03-04T22:42:59.871Z,48.46
2023-03-04T22:45:35.964Z,48.57
2023-03-04T22:48:07.489Z,48.78
2023-03-04T22:50:38.540Z,48.71
2023-03-04T22:53:09.334Z,48.59
2023-03-04T22:55:40.096Z,48.57
2023-03-04T22:58:10.867Z,48.59
2023-03-04T23:00:41.696Z,48.67
2023-03-04T23:03:12.880Z,48.66
2023-03-04T23:05:43.709Z,48.64
2023-03-04T23:08:14.443Z,48.90
2023-03-04T23:10:45.859Z,49.04
2023-03-04T23:13:18.500Z,49.01
2023-03-04T23:15:50.337Z,49.13
2023-03-04T23:18:21.081Z,48.98
2023-03-04T23:20:51.839Z,49.19
2023-03-04T23:23:25.359Z,49.20
2023-03-04T23:25:56.035Z,49.17
2023-03-04T23:28:26.864Z,49.20
2023-03-04T23:30:59.683Z,49.41
2023-03-04T23:33:31.992Z,49.64
2023-03-04T23:36:04.866Z,49.66
2023-03-04T23:38:35.684Z,49.50
2023-03-04T23:41:07.064Z,49.65
2023-03-04T23:43:37.871Z,49.66
2023-03-04T23:46:11.696Z,50.02
2023-03-04T23:48:46.431Z,49.92
2023-03-04T23:51:19.513Z,50.21
2023-03-04T23:53:51.543Z,49.89
2023-03-04T23:56:25.188Z,50.09
2023-03-04T23:58:56.695Z,50.25
